sensor_id;sensor_type;location;lat;lon;timestamp;P1;durP1;ratioP1;P2;durP2;ratioP2
31262;SDS011;17892;52.080;9.006;2023-07-13T00:01:57;2.40;;;0.73;;
31262;SDS011;17892;52.080;9.006;2023-07-13T00:04:24;2.65;;;0.90;;
31262;SDS011;17892;52.080;9.006;2023-07-13T00:06:50;2.42;;;0.90;;
31262;SDS011;17892;52.080;9.006;2023-07-13T00:09:17;3.25;;;1.00;;
31262;SDS011;17892;52.080;9.006;2023-07-13T00:11:44;3.13;;;1.00;;
31262;SDS011;17892;52.080;9.006;2023-07-13T00:14:15;2.25;;;0.90;;
31262;SDS011;17892;52.080;9.006;2023-07-13T00:16:41;2.08;;;1.08;;
31262;SDS011;17892;52.080;9.006;2023-07-13T00:19:08;2.13;;;1.10;;
31262;SDS011;17892;52.080;9.006;2023-07-13T00:21:36;2.17;;;0.80;;
31262;SDS011;17892;52.080;9.006;2023-07-13T00:24:04;2.35;;;0.77;;
31262;SDS011;17892;52.080;9.006;2023-07-13T00:26:32;2.63;;;1.20;;
31262;SDS011;17892;52.080;9.006;2023-07-13T00:28:58;1.90;;;0.90;;
31262;SDS011;17892;52.080;9.006;2023-07-13T00:31:24;3.92;;;0.88;;
31262;SDS011;17892;52.080;9.006;2023-07-13T00:33:49;3.08;;;1.15;;
31262;SDS011;17892;52.080;9.006;2023-07-13T00:36:15;1.67;;;0.80;;
31262;SDS011;17892;52.080;9.006;2023-07-13T00:38:41;2.80;;;1.08;;
31262;SDS011;17892;52.080;9.006;2023-07-13T00:41:07;1.88;;;0.93;;
31262;SDS011;17892;52.080;9.006;2023-07-13T00:43:33;2.60;;;0.98;;
31262;SDS011;17892;52.080;9.006;2023-07-13T00:46:10;3.92;;;1.42;;
31262;SDS011;17892;52.080;9.006;2023-07-13T00:48:46;2.38;;;0.85;;
31262;SDS011;17892;52.080;9.006;2023-07-13T00:51:14;2.60;;;0.93;;
31262;SDS011;17892;52.080;9.006;2023-07-13T00:53:46;2.97;;;1.02;;
31262;SDS011;17892;52.080;9.006;2023-07-13T00:56:11;4.03;;;1.00;;
31262;SDS011;17892;52.080;9.006;2023-07-13T00:58:38;1.80;;;0.80;;
31262;SDS011;17892;52.080;9.006;2023-07-13T01:01:04;2.30;;;0.80;;
31262;SDS011;17892;52.080;9.006;2023-07-13T01:03:29;2.38;;;0.75;;
31262;SDS011;17892;52.080;9.006;2023-07-13T01:05:55;3.08;;;0.80;;
31262;SDS011;17892;52.080;9.006;2023-07-13T01:08:21;2.90;;;0.82;;
31262;SDS011;17892;52.080;9.006;2023-07-13T01:10:51;1.80;;;0.90;;
31262;SDS011;17892;52.080;9.006;2023-07-13T01:13:23;1.52;;;0.70;;
31262;SDS011;17892;52.080;9.006;2023-07-13T01:15:50;1.75;;;0.85;;
31262;SDS011;17892;52.080;9.006;2023-07-13T01:18:25;2.50;;;0.88;;
31262;SDS011;17892;52.080;9.006;2023-07-13T01:20:54;2.67;;;0.93;;
31262;SDS011;17892;52.080;9.006;2023-07-13T01:23:22;3.08;;;0.90;;
31262;SDS011;17892;52.080;9.006;2023-07-13T01:25:50;3.45;;;1.42;;
31262;SDS011;17892;52.080;9.006;2023-07-13T01:28:17;2.13;;;1.00;;
31262;SDS011;17892;52.080;9.006;2023-07-13T01:30:43;1.75;;;0.88;;
31262;SDS011;17892;52.080;9.006;2023-07-13T01:33:15;3.80;;;1.33;;
31262;SDS011;17892;52.080;9.006;2023-07-13T01:35:43;2.50;;;0.95;;
31262;SDS011;17892;52.080;9.006;2023-07-13T01:38:11;2.20;;;0.90;;
31262;SDS011;17892;52.080;9.006;2023-07-13T01:40:39;1.50;;;0.80;;
31262;SDS011;17892;52.080;9.006;2023-07-13T01:43:05;1.95;;;0.85;;
31262;SDS011;17892;52.080;9.006;2023-07-13T01:45:31;2.13;;;0.82;;
31262;SDS011;17892;52.080;9.006;2023-07-13T01:47:57;2.60;;;0.98;;
31262;SDS011;17892;52.080;9.006;2023-07-13T01:50:23;1.80;;;0.98;;
31262;SDS011;17892;52.080;9.006;2023-07-13T01:52:50;2.92;;;1.10;;
31262;SDS011;17892;52.080;9.006;2023-07-13T01:55:15;2.72;;;1.05;;
31262;SDS011;17892;52.080;9.006;2023-07-13T01:57:41;1.98;;;0.60;;
31262;SDS011;17892;52.080;9.006;2023-07-13T02:00:08;1.98;;;0.90;;
31262;SDS011;17892;52.080;9.006;2023-07-13T02:02:36;2.83;;;0.80;;
31262;SDS011;17892;52.080;9.006;2023-07-13T02:05:01;1.58;;;0.93;;
31262;SDS011;17892;52.080;9.006;2023-07-13T02:07:28;2.53;;;1.00;;
31262;SDS011;17892;52.080;9.006;2023-07-13T02:09:53;2.92;;;0.98;;
31262;SDS011;17892;52.080;9.006;2023-07-13T02:12:19;2.20;;;0.90;;
31262;SDS011;17892;52.080;9.006;2023-07-13T02:14:45;3.13;;;1.00;;
31262;SDS011;17892;52.080;9.006;2023-07-13T02:17:11;2.70;;;1.08;;
31262;SDS011;17892;52.080;9.006;2023-07-13T02:19:38;2.80;;;1.33;;
31262;SDS011;17892;52.080;9.006;2023-07-13T02:22:04;2.75;;;1.30;;
31262;SDS011;17892;52.080;9.006;2023-07-13T02:24:30;4.57;;;1.15;;
31262;SDS011;17892;52.080;9.006;2023-07-13T02:26:55;2.78;;;1.23;;
31262;SDS011;17892;52.080;9.006;2023-07-13T02:29:21;2.53;;;1.08;;
31262;SDS011;17892;52.080;9.006;2023-07-13T02:31:47;2.95;;;1.08;;
31262;SDS011;17892;52.080;9.006;2023-07-13T02:34:13;2.22;;;1.10;;
31262;SDS011;17892;52.080;9.006;2023-07-13T02:36:38;3.05;;;0.90;;
31262;SDS011;17892;52.080;9.006;2023-07-13T02:39:05;2.08;;;1.02;;
31262;SDS011;17892;52.080;9.006;2023-07-13T02:41:31;3.10;;;1.00;;
31262;SDS011;17892;52.080;9.006;2023-07-13T02:44:00;2.05;;;0.95;;
31262;SDS011;17892;52.080;9.006;2023-07-13T02:46:33;2.92;;;1.23;;
31262;SDS011;17892;52.080;9.006;2023-07-13T02:49:01;2.80;;;1.05;;
31262;SDS011;17892;52.080;9.006;2023-07-13T02:51:27;4.35;;;1.25;;
31262;SDS011;17892;52.080;9.006;2023-07-13T02:53:53;2.28;;;0.93;;
31262;SDS011;17892;52.080;9.006;2023-07-13T02:56:22;3.35;;;1.10;;
31262;SDS011;17892;52.080;9.006;2023-07-13T02:58:50;2.30;;;1.02;;
31262;SDS011;17892;52.080;9.006;2023-07-13T03:01:16;3.78;;;1.00;;
31262;SDS011;17892;52.080;9.006;2023-07-13T03:03:43;4.00;;;1.20;;
31262;SDS011;17892;52.080;9.006;2023-07-13T03:06:08;3.90;;;1.20;;
31262;SDS011;17892;52.080;9.006;2023-07-13T03:08:34;2.83;;;1.23;;
31262;SDS011;17892;52.080;9.006;2023-07-13T03:11:00;3.22;;;1.55;;
31262;SDS011;17892;52.080;9.006;2023-07-13T03:13:30;3.25;;;1.17;;
31262;SDS011;17892;52.080;9.006;2023-07-13T03:15:56;2.97;;;1.10;;
31262;SDS011;17892;52.080;9.006;2023-07-13T03:18:22;2.22;;;1.33;;
31262;SDS011;17892;52.080;9.006;2023-07-13T03:20:50;2.22;;;0.90;;
31262;SDS011;17892;52.080;9.006;2023-07-13T03:23:17;2.33;;;1.33;;
31262;SDS011;17892;52.080;9.006;2023-07-13T03:25:44;4.25;;;1.20;;
31262;SDS011;17892;52.080;9.006;2023-07-13T03:28:10;4.28;;;1.17;;
31262;SDS011;17892;52.080;9.006;2023-07-13T03:30:37;3.47;;;1.02;;
31262;SDS011;17892;52.080;9.006;2023-07-13T03:33:03;3.47;;;1.15;;
31262;SDS011;17892;52.080;9.006;2023-07-13T03:35:29;2.80;;;1.00;;
31262;SDS011;17892;52.080;9.006;2023-07-13T03:37:55;4.65;;;1.20;;
31262;SDS011;17892;52.080;9.006;2023-07-13T03:40:21;2.13;;;1.10;;
31262;SDS011;17892;52.080;9.006;2023-07-13T03:42:48;2.35;;;0.90;;
31262;SDS011;17892;52.080;9.006;2023-07-13T03:45:14;3.08;;;1.25;;
31262;SDS011;17892;52.080;9.006;2023-07-13T03:47:39;3.55;;;1.10;;
31262;SDS011;17892;52.080;9.006;2023-07-13T03:50:05;3.80;;;1.13;;
31262;SDS011;17892;52.080;9.006;2023-07-13T03:52:32;3.88;;;1.50;;
31262;SDS011;17892;52.080;9.006;2023-07-13T03:54:57;3.47;;;1.10;;
31262;SDS011;17892;52.080;9.006;2023-07-13T03:57:23;2.40;;;1.00;;
31262;SDS011;17892;52.080;9.006;2023-07-13T03:59:49;3.28;;;1.10;;
31262;SDS011;17892;52.080;9.006;2023-07-13T04:02:14;2.63;;;1.00;;
31262;SDS011;17892;52.080;9.006;2023-07-13T04:04:40;2.22;;;1.10;;
31262;SDS011;17892;52.080;9.006;2023-07-13T04:07:06;3.13;;;1.23;;
31262;SDS011;17892;52.080;9.006;2023-07-13T04:09:33;3.65;;;1.05;;
31262;SDS011;17892;52.080;9.006;2023-07-13T04:11:59;3.40;;;1.25;;
31262;SDS011;17892;52.080;9.006;2023-07-13T04:14:25;4.57;;;0.95;;
31262;SDS011;17892;52.080;9.006;2023-07-13T04:16:51;2.55;;;1.30;;
31262;SDS011;17892;52.080;9.006;2023-07-13T04:19:16;3.85;;;1.50;;
31262;SDS011;17892;52.080;9.006;2023-07-13T04:21:42;3.65;;;1.75;;
31262;SDS011;17892;52.080;9.006;2023-07-13T04:24:08;3.17;;;1.13;;
31262;SDS011;17892;52.080;9.006;2023-07-13T04:26:34;4.10;;;1.40;;
31262;SDS011;17892;52.080;9.006;2023-07-13T04:29:03;4.00;;;1.50;;
31262;SDS011;17892;52.080;9.006;2023-07-13T04:31:30;2.75;;;1.42;;
31262;SDS011;17892;52.080;9.006;2023-07-13T04:33:56;3.60;;;1.23;;
31262;SDS011;17892;52.080;9.006;2023-07-13T04:36:22;5.28;;;1.50;;
31262;SDS011;17892;52.080;9.006;2023-07-13T04:38:47;3.78;;;1.40;;
31262;SDS011;17892;52.080;9.006;2023-07-13T04:41:14;4.75;;;1.70;;
31262;SDS011;17892;52.080;9.006;2023-07-13T04:43:40;3.25;;;1.17;;
31262;SDS011;17892;52.080;9.006;2023-07-13T04:46:07;3.03;;;1.50;;
31262;SDS011;17892;52.080;9.006;2023-07-13T04:48:36;3.30;;;1.13;;
31262;SDS011;17892;52.080;9.006;2023-07-13T04:51:02;3.05;;;1.30;;
31262;SDS011;17892;52.080;9.006;2023-07-13T04:53:28;2.72;;;1.30;;
31262;SDS011;17892;52.080;9.006;2023-07-13T04:55:56;4.10;;;1.50;;
31262;SDS011;17892;52.080;9.006;2023-07-13T04:58:23;3.63;;;1.30;;
31262;SDS011;17892;52.080;9.006;2023-07-13T05:00:49;4.28;;;1.60;;
31262;SDS011;17892;52.080;9.006;2023-07-13T05:03:15;3.72;;;1.40;;
31262;SDS011;17892;52.080;9.006;2023-07-13T05:05:41;3.10;;;1.40;;
31262;SDS011;17892;52.080;9.006;2023-07-13T05:08:07;4.30;;;1.25;;
31262;SDS011;17892;52.080;9.006;2023-07-13T05:10:33;3.78;;;1.08;;
31262;SDS011;17892;52.080;9.006;2023-07-13T05:13:00;3.92;;;1.00;;
31262;SDS011;17892;52.080;9.006;2023-07-13T05:15:26;3.38;;;1.00;;
31262;SDS011;17892;52.080;9.006;2023-07-13T05:17:52;3.47;;;1.20;;
31262;SDS011;17892;52.080;9.006;2023-07-13T05:20:18;3.60;;;1.20;;
31262;SDS011;17892;52.080;9.006;2023-07-13T05:22:44;4.65;;;1.20;;
31262;SDS011;17892;52.080;9.006;2023-07-13T05:25:12;3.53;;;1.13;;
31262;SDS011;17892;52.080;9.006;2023-07-13T05:27:38;3.88;;;1.15;;
31262;SDS011;17892;52.080;9.006;2023-07-13T05:30:04;3.80;;;0.95;;
31262;SDS011;17892;52.080;9.006;2023-07-13T05:32:30;4.38;;;1.15;;
31262;SDS011;17892;52.080;9.006;2023-07-13T05:34:56;2.90;;;1.13;;
31262;SDS011;17892;52.080;9.006;2023-07-13T05:37:22;3.00;;;1.23;;
31262;SDS011;17892;52.080;9.006;2023-07-13T05:39:48;3.67;;;1.10;;
31262;SDS011;17892;52.080;9.006;2023-07-13T05:42:13;3.28;;;1.00;;
31262;SDS011;17892;52.080;9.006;2023-07-13T05:44:39;3.97;;;1.48;;
31262;SDS011;17892;52.080;9.006;2023-07-13T05:47:05;2.95;;;1.00;;
31262;SDS011;17892;52.080;9.006;2023-07-13T05:49:31;2.08;;;0.75;;
31262;SDS011;17892;52.080;9.006;2023-07-13T05:51:57;3.15;;;0.90;;
31262;SDS011;17892;52.080;9.006;2023-07-13T05:54:23;3.42;;;0.93;;
31262;SDS011;17892;52.080;9.006;2023-07-13T05:56:48;3.17;;;1.08;;
31262;SDS011;17892;52.080;9.006;2023-07-13T05:59:14;3.55;;;1.25;;
31262;SDS011;17892;52.080;9.006;2023-07-13T06:01:40;2.28;;;1.02;;
31262;SDS011;17892;52.080;9.006;2023-07-13T06:04:06;2.92;;;1.10;;
31262;SDS011;17892;52.080;9.006;2023-07-13T06:06:32;3.35;;;1.23;;
31262;SDS011;17892;52.080;9.006;2023-07-13T06:08:58;2.10;;;1.10;;
31262;SDS011;17892;52.080;9.006;2023-07-13T06:11:24;3.90;;;0.85;;
31262;SDS011;17892;52.080;9.006;2023-07-13T06:13:52;3.53;;;1.20;;
31262;SDS011;17892;52.080;9.006;2023-07-13T06:16:19;5.85;;;1.48;;
31262;SDS011;17892;52.080;9.006;2023-07-13T06:18:45;2.90;;;0.95;;
31262;SDS011;17892;52.080;9.006;2023-07-13T06:21:15;2.25;;;1.02;;
31262;SDS011;17892;52.080;9.006;2023-07-13T06:26:13;3.50;;;0.80;;
31262;SDS011;17892;52.080;9.006;2023-07-13T06:28:39;3.25;;;1.30;;
31262;SDS011;17892;52.080;9.006;2023-07-13T06:31:06;3.70;;;1.10;;
31262;SDS011;17892;52.080;9.006;2023-07-13T06:33:33;3.17;;;0.90;;
31262;SDS011;17892;52.080;9.006;2023-07-13T06:35:59;3.47;;;0.95;;
31262;SDS011;17892;52.080;9.006;2023-07-13T06:38:26;4.63;;;1.00;;
31262;SDS011;17892;52.080;9.006;2023-07-13T06:40:52;3.08;;;0.82;;
31262;SDS011;17892;52.080;9.006;2023-07-13T06:43:18;2.72;;;0.90;;
31262;SDS011;17892;52.080;9.006;2023-07-13T06:45:45;2.83;;;1.20;;
31262;SDS011;17892;52.080;9.006;2023-07-13T06:48:15;2.55;;;0.80;;
31262;SDS011;17892;52.080;9.006;2023-07-13T06:50:42;6.78;;;0.93;;
31262;SDS011;17892;52.080;9.006;2023-07-13T06:53:09;2.08;;;0.80;;
31262;SDS011;17892;52.080;9.006;2023-07-13T06:55:36;1.40;;;0.70;;
31262;SDS011;17892;52.080;9.006;2023-07-13T06:58:02;2.85;;;0.82;;
31262;SDS011;17892;52.080;9.006;2023-07-13T07:00:28;3.38;;;1.27;;
31262;SDS011;17892;52.080;9.006;2023-07-13T07:02:54;2.80;;;0.82;;
31262;SDS011;17892;52.080;9.006;2023-07-13T07:05:19;4.43;;;1.40;;
31262;SDS011;17892;52.080;9.006;2023-07-13T07:07:46;3.55;;;1.05;;
31262;SDS011;17892;52.080;9.006;2023-07-13T07:10:14;3.78;;;1.08;;
31262;SDS011;17892;52.080;9.006;2023-07-13T07:12:40;3.53;;;1.20;;
31262;SDS011;17892;52.080;9.006;2023-07-13T07:15:05;3.30;;;1.10;;
31262;SDS011;17892;52.080;9.006;2023-07-13T07:17:31;2.78;;;1.10;;
31262;SDS011;17892;52.080;9.006;2023-07-13T07:19:57;2.72;;;1.10;;
31262;SDS011;17892;52.080;9.006;2023-07-13T07:22:23;3.20;;;1.00;;
31262;SDS011;17892;52.080;9.006;2023-07-13T07:24:52;4.70;;;1.30;;
31262;SDS011;17892;52.080;9.006;2023-07-13T07:27:18;3.38;;;1.00;;
31262;SDS011;17892;52.080;9.006;2023-07-13T07:29:44;2.75;;;0.88;;
31262;SDS011;17892;52.080;9.006;2023-07-13T07:32:10;3.75;;;1.20;;
31262;SDS011;17892;52.080;9.006;2023-07-13T07:34:35;4.03;;;1.40;;
31262;SDS011;17892;52.080;9.006;2023-07-13T07:37:01;4.88;;;2.22;;
31262;SDS011;17892;52.080;9.006;2023-07-13T07:39:28;3.85;;;1.50;;
31262;SDS011;17892;52.080;9.006;2023-07-13T07:41:54;5.78;;;1.90;;
31262;SDS011;17892;52.080;9.006;2023-07-13T07:44:20;3.80;;;1.60;;
31262;SDS011;17892;52.080;9.006;2023-07-13T07:46:46;3.88;;;1.80;;
31262;SDS011;17892;52.080;9.006;2023-07-13T07:49:12;4.65;;;1.85;;
31262;SDS011;17892;52.080;9.006;2023-07-13T07:51:38;6.38;;;1.67;;
31262;SDS011;17892;52.080;9.006;2023-07-13T07:54:04;3.20;;;1.52;;
31262;SDS011;17892;52.080;9.006;2023-07-13T07:56:30;4.32;;;1.52;;
31262;SDS011;17892;52.080;9.006;2023-07-13T07:58:57;5.97;;;1.83;;
31262;SDS011;17892;52.080;9.006;2023-07-13T08:01:23;4.47;;;1.05;;
31262;SDS011;17892;52.080;9.006;2023-07-13T08:03:48;4.75;;;1.50;;
31262;SDS011;17892;52.080;9.006;2023-07-13T08:06:14;3.08;;;1.30;;
31262;SDS011;17892;52.080;9.006;2023-07-13T08:08:41;3.97;;;1.40;;
31262;SDS011;17892;52.080;9.006;2023-07-13T08:11:07;4.57;;;1.60;;
31262;SDS011;17892;52.080;9.006;2023-07-13T08:13:34;3.33;;;1.10;;
31262;SDS011;17892;52.080;9.006;2023-07-13T08:16:00;2.95;;;1.30;;
31262;SDS011;17892;52.080;9.006;2023-07-13T08:18:26;2.90;;;1.10;;
31262;SDS011;17892;52.080;9.006;2023-07-13T08:20:54;2.90;;;1.27;;
31262;SDS011;17892;52.080;9.006;2023-07-13T08:23:22;5.22;;;1.33;;
31262;SDS011;17892;52.080;9.006;2023-07-13T08:25:52;4.90;;;1.40;;
31262;SDS011;17892;52.080;9.006;2023-07-13T08:28:21;5.05;;;1.27;;
31262;SDS011;17892;52.080;9.006;2023-07-13T08:30:47;3.45;;;1.10;;
31262;SDS011;17892;52.080;9.006;2023-07-13T08:33:14;4.50;;;1.30;;
31262;SDS011;17892;52.080;9.006;2023-07-13T08:35:41;4.13;;;1.15;;
31262;SDS011;17892;52.080;9.006;2023-07-13T08:38:07;3.80;;;1.23;;
31262;SDS011;17892;52.080;9.006;2023-07-13T08:40:33;3.85;;;1.15;;
31262;SDS011;17892;52.080;9.006;2023-07-13T08:42:59;2.78;;;1.35;;
31262;SDS011;17892;52.080;9.006;2023-07-13T08:45:45;3.53;;;1.40;;
31262;SDS011;17892;52.080;9.006;2023-07-13T08:48:26;3.90;;;1.10;;
31262;SDS011;17892;52.080;9.006;2023-07-13T08:54:12;3.22;;;1.40;;
31262;SDS011;17892;52.080;9.006;2023-07-13T08:56:47;2.60;;;1.25;;
31262;SDS011;17892;52.080;9.006;2023-07-13T08:59:18;3.28;;;1.52;;
31262;SDS011;17892;52.080;9.006;2023-07-13T09:10:19;2.85;;;1.30;;
31262;SDS011;17892;52.080;9.006;2023-07-13T09:15:55;4.00;;;1.33;;
31262;SDS011;17892;52.080;9.006;2023-07-13T09:18:23;3.95;;;1.55;;
31262;SDS011;17892;52.080;9.006;2023-07-13T09:26:56;3.03;;;1.00;;
31262;SDS011;17892;52.080;9.006;2023-07-13T09:29:27;3.42;;;1.30;;
31262;SDS011;17892;52.080;9.006;2023-07-13T09:31:58;3.05;;;0.98;;
31262;SDS011;17892;52.080;9.006;2023-07-13T09:34:29;3.28;;;1.00;;
31262;SDS011;17892;52.080;9.006;2023-07-13T09:36:57;2.92;;;1.17;;
31262;SDS011;17892;52.080;9.006;2023-07-13T09:39:30;3.28;;;1.20;;
31262;SDS011;17892;52.080;9.006;2023-07-13T09:47:28;3.88;;;1.27;;
31262;SDS011;17892;52.080;9.006;2023-07-13T09:49:58;3.50;;;1.10;;
31262;SDS011;17892;52.080;9.006;2023-07-13T09:52:27;4.28;;;1.23;;
31262;SDS011;17892;52.080;9.006;2023-07-13T09:55:25;2.55;;;1.10;;
31262;SDS011;17892;52.080;9.006;2023-07-13T09:57:55;3.85;;;1.45;;
31262;SDS011;17892;52.080;9.006;2023-07-13T10:00:23;3.63;;;1.42;;
31262;SDS011;17892;52.080;9.006;2023-07-13T10:03:14;2.42;;;1.05;;
31262;SDS011;17892;52.080;9.006;2023-07-13T10:05:46;3.30;;;1.00;;
31262;SDS011;17892;52.080;9.006;2023-07-13T10:08:17;3.03;;;1.50;;
31262;SDS011;17892;52.080;9.006;2023-07-13T10:10:46;3.97;;;1.30;;
31262;SDS011;17892;52.080;9.006;2023-07-13T10:13:28;3.17;;;1.20;;
31262;SDS011;17892;52.080;9.006;2023-07-13T10:16:13;2.85;;;1.42;;
31262;SDS011;17892;52.080;9.006;2023-07-13T10:21:13;2.65;;;1.15;;
31262;SDS011;17892;52.080;9.006;2023-07-13T10:23:43;3.90;;;1.25;;
31262;SDS011;17892;52.080;9.006;2023-07-13T10:26:20;5.40;;;1.70;;
31262;SDS011;17892;52.080;9.006;2023-07-13T10:28:56;3.47;;;1.27;;
31262;SDS011;17892;52.080;9.006;2023-07-13T10:31:26;2.55;;;1.50;;
31262;SDS011;17892;52.080;9.006;2023-07-13T10:33:52;4.30;;;1.58;;
31262;SDS011;17892;52.080;9.006;2023-07-13T10:39:24;3.65;;;1.20;;
31262;SDS011;17892;52.080;9.006;2023-07-13T10:41:53;3.40;;;1.10;;
31262;SDS011;17892;52.080;9.006;2023-07-13T10:44:29;7.38;;;1.90;;
31262;SDS011;17892;52.080;9.006;2023-07-13T10:46:57;2.33;;;1.40;;
31262;SDS011;17892;52.080;9.006;2023-07-13T10:49:29;3.65;;;1.23;;
31262;SDS011;17892;52.080;9.006;2023-07-13T10:51:57;3.97;;;1.00;;
31262;SDS011;17892;52.080;9.006;2023-07-13T10:54:27;2.55;;;1.30;;
31262;SDS011;17892;52.080;9.006;2023-07-13T10:57:19;2.97;;;1.30;;
31262;SDS011;17892;52.080;9.006;2023-07-13T10:59:47;2.92;;;1.40;;
31262;SDS011;17892;52.080;9.006;2023-07-13T11:02:34;4.65;;;1.67;;
31262;SDS011;17892;52.080;9.006;2023-07-13T11:05:01;3.95;;;1.52;;
31262;SDS011;17892;52.080;9.006;2023-07-13T11:07:55;2.85;;;1.30;;
31262;SDS011;17892;52.080;9.006;2023-07-13T11:10:49;3.40;;;1.50;;
31262;SDS011;17892;52.080;9.006;2023-07-13T11:13:38;3.75;;;1.50;;
31262;SDS011;17892;52.080;9.006;2023-07-13T11:16:36;4.30;;;1.42;;
31262;SDS011;17892;52.080;9.006;2023-07-13T11:27:30;3.60;;;1.80;;
31262;SDS011;17892;52.080;9.006;2023-07-13T11:30:07;4.70;;;2.00;;
31262;SDS011;17892;52.080;9.006;2023-07-13T11:32:45;5.35;;;1.58;;
31262;SDS011;17892;52.080;9.006;2023-07-13T11:35:35;3.55;;;1.67;;
31262;SDS011;17892;52.080;9.006;2023-07-13T11:38:14;5.15;;;1.80;;
31262;SDS011;17892;52.080;9.006;2023-07-13T11:40:45;3.97;;;2.47;;
31262;SDS011;17892;52.080;9.006;2023-07-13T11:43:13;3.63;;;1.73;;
31262;SDS011;17892;52.080;9.006;2023-07-13T11:45:41;3.13;;;1.80;;
31262;SDS011;17892;52.080;9.006;2023-07-13T11:51:01;3.97;;;1.85;;
31262;SDS011;17892;52.080;9.006;2023-07-13T11:53:33;3.65;;;1.83;;
31262;SDS011;17892;52.080;9.006;2023-07-13T11:56:09;4.88;;;2.10;;
31262;SDS011;17892;52.080;9.006;2023-07-13T11:58:35;3.17;;;1.77;;
31262;SDS011;17892;52.080;9.006;2023-07-13T12:01:01;3.60;;;1.60;;
31262;SDS011;17892;52.080;9.006;2023-07-13T12:03:32;2.85;;;1.90;;
31262;SDS011;17892;52.080;9.006;2023-07-13T12:06:04;3.50;;;2.30;;
31262;SDS011;17892;52.080;9.006;2023-07-13T12:08:32;3.97;;;1.88;;
31262;SDS011;17892;52.080;9.006;2023-07-13T12:11:11;3.38;;;1.95;;
31262;SDS011;17892;52.080;9.006;2023-07-13T12:13:43;2.92;;;1.60;;
31262;SDS011;17892;52.080;9.006;2023-07-13T12:16:32;3.60;;;2.40;;
31262;SDS011;17892;52.080;9.006;2023-07-13T12:19:00;4.03;;;1.90;;
31262;SDS011;17892;52.080;9.006;2023-07-13T12:21:31;5.13;;;1.70;;
31262;SDS011;17892;52.080;9.006;2023-07-13T12:23:59;3.05;;;1.48;;
31262;SDS011;17892;52.080;9.006;2023-07-13T12:26:28;2.95;;;1.60;;
31262;SDS011;17892;52.080;9.006;2023-07-13T12:28:56;3.50;;;1.75;;
31262;SDS011;17892;52.080;9.006;2023-07-13T12:34:07;2.95;;;1.27;;
31262;SDS011;17892;52.080;9.006;2023-07-13T12:36:37;2.97;;;1.55;;
31262;SDS011;17892;52.080;9.006;2023-07-13T12:39:35;3.72;;;1.85;;
31262;SDS011;17892;52.080;9.006;2023-07-13T12:42:13;2.83;;;1.50;;
31262;SDS011;17892;52.080;9.006;2023-07-13T12:44:53;4.07;;;1.20;;
31262;SDS011;17892;52.080;9.006;2023-07-13T12:47:30;3.28;;;1.58;;
31262;SDS011;17892;52.080;9.006;2023-07-13T12:50:12;2.95;;;1.23;;
31262;SDS011;17892;52.080;9.006;2023-07-13T12:52:51;2.83;;;1.30;;
31262;SDS011;17892;52.080;9.006;2023-07-13T12:55:20;3.70;;;1.50;;
31262;SDS011;17892;52.080;9.006;2023-07-13T13:00:22;3.67;;;1.48;;
31262;SDS011;17892;52.080;9.006;2023-07-13T13:03:07;2.42;;;1.30;;
31262;SDS011;17892;52.080;9.006;2023-07-13T13:08:53;4.75;;;1.48;;
31262;SDS011;17892;52.080;9.006;2023-07-13T13:11:23;2.65;;;1.17;;
31262;SDS011;17892;52.080;9.006;2023-07-13T13:13:51;3.63;;;1.33;;
31262;SDS011;17892;52.080;9.006;2023-07-13T13:18:53;4.15;;;2.00;;
31262;SDS011;17892;52.080;9.006;2023-07-13T13:23:48;2.85;;;1.45;;
31262;SDS011;17892;52.080;9.006;2023-07-13T13:26:16;3.53;;;1.33;;
31262;SDS011;17892;52.080;9.006;2023-07-13T13:28:48;2.85;;;1.70;;
31262;SDS011;17892;52.080;9.006;2023-07-13T13:31:14;3.83;;;1.48;;
31262;SDS011;17892;52.080;9.006;2023-07-13T13:33:41;4.15;;;1.77;;
31262;SDS011;17892;52.080;9.006;2023-07-13T13:36:21;2.78;;;1.50;;
31262;SDS011;17892;52.080;9.006;2023-07-13T13:38:48;3.17;;;1.60;;
31262;SDS011;17892;52.080;9.006;2023-07-13T13:41:15;3.63;;;1.58;;
31262;SDS011;17892;52.080;9.006;2023-07-13T13:43:42;2.53;;;1.33;;
31262;SDS011;17892;52.080;9.006;2023-07-13T13:46:17;2.58;;;1.42;;
31262;SDS011;17892;52.080;9.006;2023-07-13T13:48:47;3.88;;;1.58;;
31262;SDS011;17892;52.080;9.006;2023-07-13T13:51:20;3.03;;;1.67;;
31262;SDS011;17892;52.080;9.006;2023-07-13T13:53:48;2.90;;;1.52;;
31262;SDS011;17892;52.080;9.006;2023-07-13T13:56:14;2.95;;;1.50;;
31262;SDS011;17892;52.080;9.006;2023-07-13T13:58:42;2.50;;;1.52;;
31262;SDS011;17892;52.080;9.006;2023-07-13T14:01:12;3.15;;;1.75;;
31262;SDS011;17892;52.080;9.006;2023-07-13T14:03:42;2.75;;;1.60;;
31262;SDS011;17892;52.080;9.006;2023-07-13T14:06:15;2.83;;;1.42;;
31262;SDS011;17892;52.080;9.006;2023-07-13T14:08:41;3.17;;;1.20;;
31262;SDS011;17892;52.080;9.006;2023-07-13T14:11:11;2.35;;;1.20;;
31262;SDS011;17892;52.080;9.006;2023-07-13T14:13:41;2.20;;;0.90;;
31262;SDS011;17892;52.080;9.006;2023-07-13T14:16:12;3.90;;;1.20;;
31262;SDS011;17892;52.080;9.006;2023-07-13T14:18:46;3.47;;;0.98;;
31262;SDS011;17892;52.080;9.006;2023-07-13T14:21:13;1.85;;;0.70;;
31262;SDS011;17892;52.080;9.006;2023-07-13T14:23:47;2.45;;;0.82;;
31262;SDS011;17892;52.080;9.006;2023-07-13T14:26:18;2.30;;;0.93;;
31262;SDS011;17892;52.080;9.006;2023-07-13T14:28:49;2.92;;;1.10;;
31262;SDS011;17892;52.080;9.006;2023-07-13T14:31:18;2.50;;;1.05;;
31262;SDS011;17892;52.080;9.006;2023-07-13T14:33:48;2.17;;;1.08;;
31262;SDS011;17892;52.080;9.006;2023-07-13T14:39:18;3.80;;;0.93;;
31262;SDS011;17892;52.080;9.006;2023-07-13T14:41:50;2.63;;;0.77;;
31262;SDS011;17892;52.080;9.006;2023-07-13T14:44:26;3.22;;;1.10;;
31262;SDS011;17892;52.080;9.006;2023-07-13T14:54:43;3.25;;;1.00;;
31262;SDS011;17892;52.080;9.006;2023-07-13T14:57:11;2.65;;;1.00;;
31262;SDS011;17892;52.080;9.006;2023-07-13T14:59:39;2.30;;;0.98;;
31262;SDS011;17892;52.080;9.006;2023-07-13T15:02:16;2.92;;;1.20;;
31262;SDS011;17892;52.080;9.006;2023-07-13T15:04:47;1.80;;;0.77;;
31262;SDS011;17892;52.080;9.006;2023-07-13T15:07:13;2.40;;;0.80;;
31262;SDS011;17892;52.080;9.006;2023-07-13T15:09:40;2.50;;;0.95;;
31262;SDS011;17892;52.080;9.006;2023-07-13T15:12:06;1.58;;;0.80;;
31262;SDS011;17892;52.080;9.006;2023-07-13T15:14:32;1.65;;;0.85;;
31262;SDS011;17892;52.080;9.006;2023-07-13T15:16:58;2.22;;;1.00;;
31262;SDS011;17892;52.080;9.006;2023-07-13T15:19:25;2.55;;;1.08;;
31262;SDS011;17892;52.080;9.006;2023-07-13T15:21:52;2.03;;;0.80;;
31262;SDS011;17892;52.080;9.006;2023-07-13T15:24:22;2.80;;;0.80;;
31262;SDS011;17892;52.080;9.006;2023-07-13T15:26:49;2.22;;;0.90;;
31262;SDS011;17892;52.080;9.006;2023-07-13T15:29:15;2.70;;;1.38;;
31262;SDS011;17892;52.080;9.006;2023-07-13T15:31:42;2.13;;;1.00;;
31262;SDS011;17892;52.080;9.006;2023-07-13T15:34:12;2.38;;;0.90;;
31262;SDS011;17892;52.080;9.006;2023-07-13T15:36:41;1.95;;;0.90;;
31262;SDS011;17892;52.080;9.006;2023-07-13T15:39:08;2.20;;;0.95;;
31262;SDS011;17892;52.080;9.006;2023-07-13T15:41:41;3.42;;;1.23;;
31262;SDS011;17892;52.080;9.006;2023-07-13T15:44:41;2.85;;;0.95;;
31262;SDS011;17892;52.080;9.006;2023-07-13T15:47:00;2.83;;;0.80;;
31262;SDS011;17892;52.080;9.006;2023-07-13T15:49:28;2.08;;;0.90;;
31262;SDS011;17892;52.080;9.006;2023-07-13T15:51:54;2.97;;;0.90;;
31262;SDS011;17892;52.080;9.006;2023-07-13T15:54:20;2.35;;;0.80;;
31262;SDS011;17892;52.080;9.006;2023-07-13T15:56:49;2.20;;;1.10;;
31262;SDS011;17892;52.080;9.006;2023-07-13T15:59:18;1.75;;;0.88;;
31262;SDS011;17892;52.080;9.006;2023-07-13T16:01:44;1.88;;;0.88;;
31262;SDS011;17892;52.080;9.006;2023-07-13T16:04:11;1.98;;;0.90;;
31262;SDS011;17892;52.080;9.006;2023-07-13T16:06:39;2.83;;;0.90;;
31262;SDS011;17892;52.080;9.006;2023-07-13T16:09:06;2.75;;;0.90;;